Seal Cove, Maine
Current Conditions -  °F | °C
As of 9:35 AM on Thursday 18 Dec 2014 (Local Time) from KBHB Reporting Station
Overcast Overcast  
Wind Chill: 23°   Ceiling: 1500
Heat Index: 32°   Visibility: 10mi
Dew Point: 32°   Wind: 12mph
Humidity: 100%   Direction: 330°NNW
Pressure: 29.6"   Gusts: 18mph
Location:  44.28°N, 68.4°W
Report Text: KBHB 181435Z AUTO 33010G16KT 10SM BKN015 OVC035 00/00 A2960 RMK AO1
Loading
Personal Weather Stations






























Interactive Weather Map New forecast layout! Learn more

10-Day Weather Forecast

Advertisements
Track Severe Weather on mobile